createdAt,value
2023-06-14T00:01:36.585Z,4.20
2023-06-14T00:04:42.812Z,4.20
2023-06-14T00:07:46.141Z,3.00
2023-06-14T00:10:49.586Z,3.40
2023-06-14T00:13:52.769Z,3.60
2023-06-14T00:16:59.868Z,4.00
2023-06-14T00:20:08.175Z,3.50
2023-06-14T00:23:11.388Z,4.27
2023-06-14T00:26:14.513Z,4.47
2023-06-14T00:29:17.690Z,3.50
2023-06-14T00:32:25.720Z,3.83
2023-06-14T00:35:30.328Z,4.30
2023-06-14T00:38:33.507Z,4.10
2023-06-14T00:41:36.622Z,3.70
2023-06-14T00:44:39.836Z,3.73
2023-06-14T00:47:44.701Z,3.50
2023-06-14T00:50:51.391Z,3.90
2023-06-14T00:53:54.520Z,3.43
2023-06-14T00:56:57.774Z,3.93
2023-06-14T01:00:01.065Z,3.83
2023-06-14T01:03:04.733Z,4.43
2023-06-14T01:06:28.407Z,3.50
2023-06-14T01:09:39.944Z,3.50
2023-06-14T01:12:50.973Z,4.60
2023-06-14T01:15:55.119Z,3.43
2023-06-14T01:18:59.216Z,4.43
2023-06-14T01:22:04.340Z,3.87
2023-06-14T01:25:09.868Z,3.90
2023-06-14T01:28:14.212Z,4.17
2023-06-14T01:31:20.134Z,4.00
2023-06-14T01:34:23.560Z,3.80
2023-06-14T01:37:26.865Z,3.83
2023-06-14T01:40:32.823Z,4.00
2023-06-14T01:43:36.868Z,4.57
2023-06-14T01:46:40.524Z,4.03
2023-06-14T01:49:43.777Z,4.07
2023-06-14T01:52:47.084Z,4.00
2023-06-14T01:55:51.658Z,4.30
2023-06-14T01:58:54.836Z,4.20
2023-06-14T02:01:58.039Z,4.53
2023-06-14T02:05:01.617Z,4.57
2023-06-14T02:08:04.945Z,4.03
2023-06-14T02:11:09.422Z,3.87
2023-06-14T02:14:13.112Z,3.87
2023-06-14T02:17:17.156Z,3.90
2023-06-14T02:20:20.391Z,3.60
2023-06-14T02:23:23.518Z,3.60
2023-06-14T02:26:30.054Z,3.70
2023-06-14T02:29:33.189Z,4.27
2023-06-14T02:32:37.018Z,3.77
2023-06-14T02:35:40.293Z,3.90
2023-06-14T02:38:44.772Z,4.17
2023-06-14T02:41:49.367Z,3.80
2023-06-14T02:44:53.022Z,3.80
2023-06-14T02:47:57.137Z,4.50
2023-06-14T02:51:00.393Z,3.87
2023-06-14T02:54:03.606Z,4.20
2023-06-14T02:57:09.273Z,3.93
2023-06-14T03:00:14.685Z,3.80
2023-06-14T03:03:19.329Z,3.80
2023-06-14T03:06:26.171Z,4.10
2023-06-14T03:09:29.903Z,4.00
2023-06-14T03:12:34.395Z,3.40
2023-06-14T03:15:37.503Z,4.03
2023-06-14T03:18:40.617Z,3.73
2023-06-14T03:21:45.784Z,3.93
2023-06-14T03:24:49.201Z,3.80
2023-06-14T03:27:53.659Z,4.10
2023-06-14T03:30:57.089Z,4.00
2023-06-14T03:34:00.256Z,3.73
2023-06-14T03:37:03.536Z,3.70
2023-06-14T03:40:08.318Z,3.93
2023-06-14T03:43:12.897Z,3.83
2023-06-14T03:46:16.078Z,4.23
2023-06-14T03:49:19.162Z,3.90
2023-06-14T03:52:23.198Z,3.77
2023-06-14T03:58:36.210Z,4.37
2023-06-14T04:01:41.638Z,3.87
2023-06-14T04:04:46.539Z,3.53
2023-06-14T04:07:51.709Z,3.73
2023-06-14T04:10:55.147Z,3.87
2023-06-14T04:14:00.358Z,3.30
2023-06-14T04:17:04.036Z,3.60
2023-06-14T04:20:10.712Z,3.93
2023-06-14T04:23:15.387Z,4.67
2023-06-14T04:26:18.584Z,3.90
2023-06-14T04:29:24.662Z,4.73
2023-06-14T04:32:28.306Z,4.37
2023-06-14T04:35:33.342Z,3.63
2023-06-14T04:38:36.474Z,3.73
2023-06-14T04:41:39.634Z,3.53
2023-06-14T04:44:44.718Z,3.30
2023-06-14T04:47:48.336Z,4.13
2023-06-14T04:50:54.034Z,3.70
2023-06-14T04:53:58.037Z,4.17
2023-06-14T04:57:01.201Z,4.03
2023-06-14T05:00:07.625Z,4.20
2023-06-14T05:03:14.484Z,3.30
2023-06-14T05:06:18.596Z,3.67
2023-06-14T05:09:22.178Z,4.00
2023-06-14T05:12:25.348Z,4.30
2023-06-14T05:15:30.147Z,3.87
2023-06-14T05:18:35.209Z,4.17
2023-06-14T05:21:43.257Z,4.17
2023-06-14T05:24:48.984Z,4.10
2023-06-14T05:27:52.167Z,3.60
2023-06-14T05:30:56.664Z,4.73
2023-06-14T05:33:59.904Z,4.20
2023-06-14T05:37:05.347Z,4.23
2023-06-14T05:40:10.103Z,4.20
2023-06-14T05:43:13.243Z,4.17
2023-06-14T05:46:23.119Z,4.70
2023-06-14T05:49:26.273Z,4.23
2023-06-14T05:52:30.759Z,4.23
2023-06-14T05:55:33.924Z,4.27
2023-06-14T05:58:37.087Z,4.23
2023-06-14T06:01:41.832Z,4.43
2023-06-14T06:04:44.974Z,4.50
2023-06-14T06:07:49.328Z,4.73
2023-06-14T06:10:52.517Z,4.00
2023-06-14T06:13:55.661Z,4.40
2023-06-14T06:17:00.295Z,4.40
2023-06-14T06:20:03.606Z,3.83
2023-06-14T06:23:06.843Z,4.17
2023-06-14T06:26:10.010Z,4.83
2023-06-14T06:29:13.371Z,5.90
2023-06-14T06:32:17.983Z,3.90
2023-06-14T06:35:21.239Z,5.00
2023-06-14T06:38:24.469Z,4.60
2023-06-14T06:41:28.032Z,5.10
2023-06-14T06:44:31.435Z,4.90
2023-06-14T06:47:36.409Z,4.20
2023-06-14T06:50:39.972Z,4.97
2023-06-14T06:53:48.085Z,4.90
2023-06-14T06:56:53.676Z,4.80
2023-06-14T06:59:56.875Z,4.37
2023-06-14T07:03:01.513Z,4.33
2023-06-14T07:06:04.954Z,4.03
2023-06-14T07:09:13.317Z,3.87
2023-06-14T07:12:16.498Z,4.47
2023-06-14T07:15:19.733Z,4.60
2023-06-14T07:18:24.409Z,4.03
2023-06-14T07:21:27.903Z,3.87
2023-06-14T07:24:31.051Z,4.03
2023-06-14T07:27:34.281Z,4.53
2023-06-14T07:30:37.868Z,4.73
2023-06-14T07:33:44.213Z,4.57
2023-06-14T07:36:48.663Z,4.40
2023-06-14T07:39:51.870Z,5.27
2023-06-14T07:42:55.999Z,5.27
2023-06-14T07:46:07.818Z,4.73
2023-06-14T07:49:13.085Z,4.63
2023-06-14T07:52:16.360Z,4.77
2023-06-14T07:55:19.755Z,5.00
2023-06-14T07:58:22.952Z,4.67
2023-06-14T08:01:29.312Z,4.93
2023-06-14T08:04:34.200Z,6.00
2023-06-14T08:07:37.434Z,4.60
2023-06-14T08:10:40.617Z,5.43
2023-06-14T08:13:43.862Z,5.37
2023-06-14T08:16:47.016Z,4.87
2023-06-14T08:19:51.894Z,5.77
2023-06-14T08:22:56.457Z,5.10
2023-06-14T08:26:01.473Z,5.77
2023-06-14T08:29:04.687Z,5.10
2023-06-14T08:32:08.481Z,5.00
2023-06-14T08:35:13.707Z,4.97
2023-06-14T08:38:17.011Z,5.00
2023-06-14T08:41:25.734Z,5.53
2023-06-14T08:44:29.052Z,5.70
2023-06-14T08:47:41.783Z,5.73
2023-06-14T08:50:49.236Z,5.33
2023-06-14T08:53:55.698Z,5.53
2023-06-14T08:56:59.361Z,6.60
2023-06-14T09:00:11.189Z,6.77
2023-06-14T09:03:18.300Z,5.87
2023-06-14T09:06:24.334Z,5.00
2023-06-14T09:09:28.055Z,5.63
2023-06-14T09:12:32.500Z,6.03
2023-06-14T09:15:37.095Z,5.70
2023-06-14T09:18:42.178Z,5.50
2023-06-14T09:21:50.149Z,5.40
2023-06-14T09:24:53.332Z,6.60
2023-06-14T09:27:56.551Z,5.40
2023-06-14T09:30:59.780Z,4.50
2023-06-14T09:34:05.041Z,3.70
2023-06-14T09:37:09.653Z,5.27
2023-06-14T09:40:13.068Z,5.40
2023-06-14T09:43:16.527Z,4.27
2023-06-14T09:46:20.617Z,4.77
2023-06-14T09:49:24.947Z,4.93
2023-06-14T09:52:30.664Z,5.17
2023-06-14T09:55:38.186Z,4.50
2023-06-14T09:58:42.800Z,4.30
2023-06-14T10:01:50.992Z,4.63
2023-06-14T10:05:02.204Z,4.53
2023-06-14T10:08:11.074Z,4.60
2023-06-14T10:11:15.487Z,4.87
2023-06-14T10:14:19.670Z,4.90
2023-06-14T10:17:32.737Z,5.10
2023-06-14T10:20:42.727Z,4.87
2023-06-14T10:23:49.428Z,5.07
2023-06-14T10:26:53.846Z,4.10
2023-06-14T10:30:09.608Z,4.23
2023-06-14T10:33:17.144Z,4.53
2023-06-14T10:36:35.397Z,4.40
2023-06-14T10:39:45.335Z,4.87
2023-06-14T10:42:54.257Z,3.93
2023-06-14T10:46:17.901Z,4.20
2023-06-14T10:49:21.184Z,3.90
2023-06-14T10:52:29.158Z,4.23
2023-06-14T10:55:37.729Z,4.00
2023-06-14T10:58:41.411Z,3.63
2023-06-14T11:01:59.619Z,4.90
2023-06-14T11:05:07.885Z,3.83
2023-06-14T11:08:35.945Z,3.60
2023-06-14T11:11:44.926Z,3.10
2023-06-14T11:14:49.682Z,4.10
2023-06-14T11:17:54.546Z,4.40
2023-06-14T11:20:58.247Z,4.33
2023-06-14T11:24:01.488Z,4.27
2023-06-14T11:27:07.426Z,3.77
2023-06-14T11:30:11.615Z,3.90
2023-06-14T11:33:22.444Z,3.80
2023-06-14T11:36:25.914Z,4.60
2023-06-14T11:39:29.320Z,4.57
2023-06-14T11:42:34.142Z,3.57
2023-06-14T11:45:38.177Z,3.23
2023-06-14T11:48:44.166Z,3.80
2023-06-14T11:51:48.228Z,3.87
2023-06-14T11:54:51.504Z,3.07
2023-06-14T11:57:57.848Z,4.03
2023-06-14T12:01:01.034Z,4.27
2023-06-14T12:04:05.855Z,4.70
2023-06-14T12:07:13.452Z,4.50
2023-06-14T12:10:17.095Z,3.90
2023-06-14T12:13:21.913Z,3.77
2023-06-14T12:16:32.797Z,3.73
2023-06-14T12:19:43.449Z,4.30
2023-06-14T12:22:53.005Z,4.20
2023-06-14T12:25:56.592Z,3.60
2023-06-14T12:29:01.855Z,3.90
2023-06-14T12:32:05.342Z,4.00
2023-06-14T12:35:09.034Z,3.60
2023-06-14T12:38:12.173Z,4.30
2023-06-14T12:41:16.070Z,3.73
2023-06-14T12:44:20.648Z,4.47
2023-06-14T12:47:23.807Z,4.13
2023-06-14T12:50:27.428Z,4.17
2023-06-14T12:53:30.749Z,3.50
2023-06-14T12:56:34.087Z,4.40
2023-06-14T12:59:38.679Z,3.90
2023-06-14T13:02:41.990Z,4.67
2023-06-14T13:05:45.288Z,3.80
2023-06-14T13:08:48.421Z,3.60
2023-06-14T13:11:51.584Z,4.40
2023-06-14T13:14:56.165Z,4.50
2023-06-14T13:17:59.387Z,4.50
2023-06-14T13:21:02.652Z,4.30
2023-06-14T13:24:06.666Z,3.90
2023-06-14T13:27:09.907Z,4.13
2023-06-14T13:30:15.704Z,5.10
2023-06-14T13:33:19.408Z,4.30
2023-06-14T13:36:22.700Z,5.20
2023-06-14T13:39:25.884Z,5.43
2023-06-14T13:42:32.449Z,4.57
2023-06-14T13:45:37.441Z,4.70
2023-06-14T13:48:40.679Z,4.27
2023-06-14T13:51:44.290Z,3.73
2023-06-14T13:54:49.443Z,4.20
2023-06-14T13:57:52.803Z,4.17
2023-06-14T14:00:57.946Z,4.40
2023-06-14T14:04:01.806Z,4.07
2023-06-14T14:07:05.699Z,6.17
2023-06-14T14:10:10.081Z,5.47
2023-06-14T14:13:13.726Z,4.43
2023-06-14T14:16:18.576Z,4.10
2023-06-14T14:19:21.833Z,4.67
2023-06-14T14:22:25.035Z,4.43
2023-06-14T14:25:28.203Z,4.67
2023-06-14T14:28:31.630Z,3.80
2023-06-14T14:31:36.450Z,4.77
2023-06-14T14:34:41.166Z,5.30
2023-06-14T14:37:44.327Z,4.30
2023-06-14T14:40:47.657Z,4.60
2023-06-14T14:43:51.177Z,4.73
2023-06-14T14:46:55.732Z,4.40
2023-06-14T14:50:01.924Z,4.27
2023-06-14T14:53:05.061Z,4.30
2023-06-14T14:56:08.262Z,4.57
2023-06-14T14:59:11.407Z,3.80
2023-06-14T15:02:15.983Z,4.00
2023-06-14T15:05:19.423Z,4.40
2023-06-14T15:08:22.818Z,4.40
2023-06-14T15:11:26.649Z,4.27
2023-06-14T15:14:29.932Z,4.27
2023-06-14T15:17:34.516Z,4.80
2023-06-14T15:20:37.759Z,4.37
2023-06-14T15:23:41.046Z,4.37
2023-06-14T15:26:44.170Z,4.50
2023-06-14T15:29:49.662Z,4.40
2023-06-14T15:32:56.036Z,4.13
2023-06-14T15:35:59.217Z,4.60
2023-06-14T15:39:02.357Z,4.33
2023-06-14T15:42:07.390Z,4.40
2023-06-14T15:45:11.394Z,4.80
2023-06-14T15:48:16.000Z,4.50
2023-06-14T15:51:19.215Z,4.57
2023-06-14T15:54:22.409Z,4.20
2023-06-14T15:57:25.566Z,4.27
2023-06-14T16:00:28.829Z,4.67
2023-06-14T16:03:33.512Z,4.20
2023-06-14T16:06:37.690Z,5.90
2023-06-14T16:09:40.878Z,4.77
2023-06-14T16:12:44.104Z,4.37
2023-06-14T16:15:47.332Z,5.00
2023-06-14T16:18:52.161Z,4.40
2023-06-14T16:21:55.362Z,5.50
2023-06-14T16:24:58.559Z,4.37
2023-06-14T16:28:01.675Z,4.60
2023-06-14T16:31:05.026Z,4.87
2023-06-14T16:34:12.494Z,4.53
2023-06-14T16:37:15.819Z,4.53
2023-06-14T16:40:19.239Z,4.47
2023-06-14T16:43:22.431Z,4.60
2023-06-14T16:46:31.130Z,5.03
2023-06-14T16:49:35.846Z,5.00
2023-06-14T16:52:38.988Z,5.50
2023-06-14T16:55:42.746Z,4.93
2023-06-14T16:58:46.209Z,4.97
2023-06-14T17:01:54.221Z,4.87
2023-06-14T17:04:58.713Z,4.90
2023-06-14T17:08:02.367Z,5.90
2023-06-14T17:11:05.556Z,5.10
2023-06-14T17:14:09.057Z,4.90
2023-06-14T17:17:12.443Z,4.27
2023-06-14T17:20:17.325Z,4.67
2023-06-14T17:23:20.735Z,4.77
2023-06-14T17:26:24.014Z,4.90
2023-06-14T17:29:28.094Z,4.23
2023-06-14T17:32:31.579Z,4.73
2023-06-14T17:35:36.108Z,4.47
2023-06-14T17:38:39.680Z,5.23
2023-06-14T17:41:42.823Z,4.60
2023-06-14T17:44:46.466Z,5.33
2023-06-14T17:47:51.455Z,4.57
2023-06-14T17:50:56.687Z,3.83
2023-06-14T17:53:59.871Z,5.20
2023-06-14T17:57:03.025Z,5.13
2023-06-14T18:00:07.369Z,4.50
2023-06-14T18:03:10.651Z,5.10
2023-06-14T18:06:15.247Z,4.87
2023-06-14T18:09:18.458Z,4.93
2023-06-14T18:12:21.775Z,4.80
2023-06-14T18:15:25.157Z,5.00
2023-06-14T18:18:28.433Z,5.10
2023-06-14T18:21:33.075Z,5.63
2023-06-14T18:24:36.328Z,5.13
2023-06-14T18:27:39.482Z,5.07
2023-06-14T18:30:42.696Z,5.20
2023-06-14T18:33:46.149Z,4.70
2023-06-14T18:36:50.664Z,5.20
2023-06-14T18:39:53.986Z,5.67
2023-06-14T18:42:58.014Z,5.80
2023-06-14T18:46:01.488Z,5.13
2023-06-14T18:49:04.594Z,5.23
2023-06-14T18:52:10.609Z,5.77
2023-06-14T18:55:14.106Z,5.30
2023-06-14T18:58:18.722Z,5.23
2023-06-14T19:01:22.110Z,5.17
2023-06-14T19:04:25.370Z,4.50
2023-06-14T19:07:29.983Z,5.53
2023-06-14T19:10:33.502Z,4.93
2023-06-14T19:13:36.687Z,4.93
2023-06-14T19:16:39.833Z,5.27
2023-06-14T19:19:44.360Z,5.27
2023-06-14T19:22:48.957Z,5.17
2023-06-14T19:25:52.546Z,5.73
2023-06-14T19:28:57.700Z,5.40
2023-06-14T19:32:00.970Z,5.10
2023-06-14T19:35:04.367Z,6.53
2023-06-14T19:38:08.962Z,6.07
2023-06-14T19:41:12.138Z,5.17
2023-06-14T19:44:15.277Z,6.57
2023-06-14T19:47:18.443Z,5.80
2023-06-14T19:50:21.895Z,5.03
2023-06-14T19:53:26.463Z,6.90
2023-06-14T19:56:29.616Z,6.07
2023-06-14T19:59:33.226Z,5.13
2023-06-14T20:02:36.579Z,5.90
2023-06-14T20:05:40.022Z,5.60
2023-06-14T20:08:44.635Z,6.33
2023-06-14T20:11:47.819Z,5.27
2023-06-14T20:14:51.719Z,5.40
2023-06-14T20:17:57.640Z,5.30
2023-06-14T20:21:00.952Z,6.23
2023-06-14T20:24:05.970Z,6.80
2023-06-14T20:27:11.260Z,6.20
2023-06-14T20:30:14.620Z,6.70
2023-06-14T20:33:17.978Z,7.10
2023-06-14T20:36:22.185Z,6.63
2023-06-14T20:39:26.835Z,6.50
2023-06-14T20:42:31.163Z,5.90
2023-06-14T20:45:35.714Z,5.90
2023-06-14T20:48:39.669Z,5.20
2023-06-14T20:51:42.847Z,5.30
2023-06-14T20:54:47.453Z,5.87
2023-06-14T20:57:51.730Z,5.90
2023-06-14T21:00:54.898Z,5.70
2023-06-14T21:03:58.057Z,5.60
2023-06-14T21:07:01.252Z,6.83
2023-06-14T21:10:07.075Z,6.10
2023-06-14T21:13:10.244Z,5.70
2023-06-14T21:16:13.503Z,6.30
2023-06-14T21:19:16.737Z,6.30
2023-06-14T21:22:19.872Z,6.40
2023-06-14T21:25:24.392Z,5.73
2023-06-14T21:28:27.621Z,6.13
2023-06-14T21:31:31.087Z,6.30
2023-06-14T21:34:34.307Z,6.97
2023-06-14T21:37:37.470Z,6.20
2023-06-14T21:40:42.320Z,6.80
2023-06-14T21:43:45.471Z,5.67
2023-06-14T21:46:48.861Z,6.07
2023-06-14T21:49:52.089Z,5.70
2023-06-14T21:52:55.253Z,6.67
2023-06-14T21:55:59.884Z,5.67
2023-06-14T21:59:02.975Z,5.90
2023-06-14T22:02:06.489Z,6.00
2023-06-14T22:05:09.807Z,6.33
2023-06-14T22:08:14.002Z,6.20
2023-06-14T22:11:22.194Z,6.70
2023-06-14T22:14:25.400Z,6.47
2023-06-14T22:17:30.600Z,7.10
2023-06-14T22:20:34.077Z,5.80
2023-06-14T22:23:37.954Z,5.90
2023-06-14T22:26:48.337Z,6.27
2023-06-14T22:29:57.597Z,5.80
2023-06-14T22:33:00.915Z,6.47
2023-06-14T22:36:05.748Z,6.07
2023-06-14T22:39:09.643Z,6.50
2023-06-14T22:42:18.646Z,6.10
2023-06-14T22:45:26.790Z,5.87
2023-06-14T22:48:31.616Z,5.40
2023-06-14T22:51:34.801Z,5.70
2023-06-14T22:54:37.897Z,5.73
2023-06-14T22:57:46.898Z,6.80
2023-06-14T23:00:50.077Z,6.60
2023-06-14T23:03:53.224Z,5.80
2023-06-14T23:06:56.632Z,6.00
2023-06-14T23:09:59.858Z,5.50
2023-06-14T23:13:05.374Z,6.47
2023-06-14T23:16:09.716Z,6.00
2023-06-14T23:19:15.339Z,5.53
2023-06-14T23:22:18.572Z,6.20
2023-06-14T23:25:21.807Z,5.03
2023-06-14T23:28:28.026Z,5.70
2023-06-14T23:31:31.799Z,6.13
2023-06-14T23:34:35.524Z,5.40
2023-06-14T23:37:38.667Z,5.50
2023-06-14T23:40:41.846Z,6.03
2023-06-14T23:43:46.922Z,6.30
2023-06-14T23:46:51.474Z,5.40
2023-06-14T23:49:54.564Z,5.73
2023-06-14T23:53:00.396Z,6.10
2023-06-14T23:56:04.223Z,5.93
2023-06-14T23:59:08.808Z,6.00
